sensor_id;sensor_type;location;lat;lon;timestamp;temperature;humidity
33271;DHT22;53180;51.344;6.152;2022-08-18T00:01:12;18.10;91.00
33271;DHT22;53180;51.344;6.152;2022-08-18T00:03:44;18.20;91.00
33271;DHT22;53180;51.344;6.152;2022-08-18T00:06:27;18.20;91.00
33271;DHT22;53180;51.344;6.152;2022-08-18T00:08:57;18.20;90.90
33271;DHT22;53180;51.344;6.152;2022-08-18T00:11:28;18.30;91.10
33271;DHT22;53180;51.344;6.152;2022-08-18T00:14:09;18.30;91.00
33271;DHT22;53180;51.344;6.152;2022-08-18T00:16:48;18.40;90.80
33271;DHT22;53180;51.344;6.152;2022-08-18T00:19:18;18.40;90.80
33271;DHT22;53180;51.344;6.152;2022-08-18T00:22:09;18.40;90.90
33271;DHT22;53180;51.344;6.152;2022-08-18T00:24:42;18.40;91.00
33271;DHT22;53180;51.344;6.152;2022-08-18T00:27:17;18.50;91.00
33271;DHT22;53180;51.344;6.152;2022-08-18T00:29:49;18.50;90.90
33271;DHT22;53180;51.344;6.152;2022-08-18T00:32:20;18.50;91.00
33271;DHT22;53180;51.344;6.152;2022-08-18T00:34:50;18.50;91.00
33271;DHT22;53180;51.344;6.152;2022-08-18T00:37:20;18.50;91.00
33271;DHT22;53180;51.344;6.152;2022-08-18T00:39:50;18.50;91.00
33271;DHT22;53180;51.344;6.152;2022-08-18T00:42:22;18.60;91.00
33271;DHT22;53180;51.344;6.152;2022-08-18T00:44:58;18.60;91.00
33271;DHT22;53180;51.344;6.152;2022-08-18T00:47:28;18.60;90.90
33271;DHT22;53180;51.344;6.152;2022-08-18T00:50:15;18.60;90.90
33271;DHT22;53180;51.344;6.152;2022-08-18T00:52:52;18.70;90.80
33271;DHT22;53180;51.344;6.152;2022-08-18T00:55:23;18.70;90.80
33271;DHT22;53180;51.344;6.152;2022-08-18T00:57:55;18.70;90.80
33271;DHT22;53180;51.344;6.152;2022-08-18T01:00:28;18.70;91.00
33271;DHT22;53180;51.344;6.152;2022-08-18T01:02:59;18.60;91.30
33271;DHT22;53180;51.344;6.152;2022-08-18T01:05:34;18.60;91.40
33271;DHT22;53180;51.344;6.152;2022-08-18T01:08:11;18.60;91.20
33271;DHT22;53180;51.344;6.152;2022-08-18T01:10:43;18.70;91.30
33271;DHT22;53180;51.344;6.152;2022-08-18T01:13:12;18.70;91.30
33271;DHT22;53180;51.344;6.152;2022-08-18T01:15:40;18.70;91.30
33271;DHT22;53180;51.344;6.152;2022-08-18T01:18:10;18.70;91.40
33271;DHT22;53180;51.344;6.152;2022-08-18T01:21:03;18.70;91.40
33271;DHT22;53180;51.344;6.152;2022-08-18T01:23:54;18.70;91.40
33271;DHT22;53180;51.344;6.152;2022-08-18T01:26:24;18.70;91.40
33271;DHT22;53180;51.344;6.152;2022-08-18T01:28:52;18.70;91.50
33271;DHT22;53180;51.344;6.152;2022-08-18T01:31:31;18.70;91.60
33271;DHT22;53180;51.344;6.152;2022-08-18T01:34:04;18.70;91.60
33271;DHT22;53180;51.344;6.152;2022-08-18T01:36:34;18.60;91.80
33271;DHT22;53180;51.344;6.152;2022-08-18T01:39:07;18.60;92.00
33271;DHT22;53180;51.344;6.152;2022-08-18T01:41:39;18.50;92.20
33271;DHT22;53180;51.344;6.152;2022-08-18T01:44:08;18.50;92.30
33271;DHT22;53180;51.344;6.152;2022-08-18T01:46:39;18.50;92.30
33271;DHT22;53180;51.344;6.152;2022-08-18T01:49:09;18.50;92.30
33271;DHT22;53180;51.344;6.152;2022-08-18T01:51:39;18.50;92.20
33271;DHT22;53180;51.344;6.152;2022-08-18T01:54:12;18.50;92.10
33271;DHT22;53180;51.344;6.152;2022-08-18T01:56:41;18.60;92.00
33271;DHT22;53180;51.344;6.152;2022-08-18T01:59:10;18.60;91.80
33271;DHT22;53180;51.344;6.152;2022-08-18T02:01:42;18.60;91.80
33271;DHT22;53180;51.344;6.152;2022-08-18T02:04:20;18.70;91.90
33271;DHT22;53180;51.344;6.152;2022-08-18T02:07:04;18.70;91.70
33271;DHT22;53180;51.344;6.152;2022-08-18T02:09:37;18.70;91.40
33271;DHT22;53180;51.344;6.152;2022-08-18T02:12:07;18.70;91.50
33271;DHT22;53180;51.344;6.152;2022-08-18T02:14:36;18.70;91.40
33271;DHT22;53180;51.344;6.152;2022-08-18T02:17:06;18.70;91.40
33271;DHT22;53180;51.344;6.152;2022-08-18T02:19:38;18.70;91.10
33271;DHT22;53180;51.344;6.152;2022-08-18T02:22:10;18.80;91.30
33271;DHT22;53180;51.344;6.152;2022-08-18T02:24:42;18.80;91.30
33271;DHT22;53180;51.344;6.152;2022-08-18T02:27:11;18.80;91.40
33271;DHT22;53180;51.344;6.152;2022-08-18T02:29:41;18.80;91.40
33271;DHT22;53180;51.344;6.152;2022-08-18T02:32:09;18.80;91.30
33271;DHT22;53180;51.344;6.152;2022-08-18T02:34:38;18.80;91.40
33271;DHT22;53180;51.344;6.152;2022-08-18T02:37:08;18.80;91.50
33271;DHT22;53180;51.344;6.152;2022-08-18T02:39:42;18.80;91.60
33271;DHT22;53180;51.344;6.152;2022-08-18T02:42:11;18.80;91.70
33271;DHT22;53180;51.344;6.152;2022-08-18T02:44:40;18.70;91.90
33271;DHT22;53180;51.344;6.152;2022-08-18T02:47:08;18.70;91.90
33271;DHT22;53180;51.344;6.152;2022-08-18T02:49:36;18.60;92.20
33271;DHT22;53180;51.344;6.152;2022-08-18T02:52:05;18.60;92.30
33271;DHT22;53180;51.344;6.152;2022-08-18T02:54:33;18.60;92.30
33271;DHT22;53180;51.344;6.152;2022-08-18T02:57:06;18.60;92.40
33271;DHT22;53180;51.344;6.152;2022-08-18T02:59:37;18.60;92.30
33271;DHT22;53180;51.344;6.152;2022-08-18T03:02:07;18.70;92.10
33271;DHT22;53180;51.344;6.152;2022-08-18T03:04:37;18.70;92.00
33271;DHT22;53180;51.344;6.152;2022-08-18T03:07:06;18.70;91.80
33271;DHT22;53180;51.344;6.152;2022-08-18T03:09:35;18.80;91.60
33271;DHT22;53180;51.344;6.152;2022-08-18T03:12:05;18.80;91.60
33271;DHT22;53180;51.344;6.152;2022-08-18T03:14:35;18.80;91.50
33271;DHT22;53180;51.344;6.152;2022-08-18T03:17:07;18.80;91.20
33271;DHT22;53180;51.344;6.152;2022-08-18T03:19:36;18.90;91.20
33271;DHT22;53180;51.344;6.152;2022-08-18T03:22:07;18.90;91.30
33271;DHT22;53180;51.344;6.152;2022-08-18T03:24:55;18.90;91.10
33271;DHT22;53180;51.344;6.152;2022-08-18T03:27:25;18.90;91.00
33271;DHT22;53180;51.344;6.152;2022-08-18T03:29:53;19.00;91.00
33271;DHT22;53180;51.344;6.152;2022-08-18T03:32:24;19.00;91.00
33271;DHT22;53180;51.344;6.152;2022-08-18T03:34:52;19.00;91.00
33271;DHT22;53180;51.344;6.152;2022-08-18T03:37:20;19.00;90.90
33271;DHT22;53180;51.344;6.152;2022-08-18T03:39:49;19.00;90.90
33271;DHT22;53180;51.344;6.152;2022-08-18T03:42:18;19.00;90.80
33271;DHT22;53180;51.344;6.152;2022-08-18T03:44:48;19.00;90.80
33271;DHT22;53180;51.344;6.152;2022-08-18T03:47:16;19.00;90.80
33271;DHT22;53180;51.344;6.152;2022-08-18T03:49:44;19.00;90.70
33271;DHT22;53180;51.344;6.152;2022-08-18T03:52:14;19.00;90.60
33271;DHT22;53180;51.344;6.152;2022-08-18T03:54:42;19.00;90.70
33271;DHT22;53180;51.344;6.152;2022-08-18T03:57:11;19.00;90.50
33271;DHT22;53180;51.344;6.152;2022-08-18T03:59:39;19.00;90.40
33271;DHT22;53180;51.344;6.152;2022-08-18T04:02:11;19.00;90.30
33271;DHT22;53180;51.344;6.152;2022-08-18T04:04:39;19.00;90.20
33271;DHT22;53180;51.344;6.152;2022-08-18T04:07:10;19.00;90.40
33271;DHT22;53180;51.344;6.152;2022-08-18T04:09:40;19.00;90.40
33271;DHT22;53180;51.344;6.152;2022-08-18T04:12:11;19.00;90.40
33271;DHT22;53180;51.344;6.152;2022-08-18T04:14:45;19.00;90.40
33271;DHT22;53180;51.344;6.152;2022-08-18T04:17:17;19.00;90.40
33271;DHT22;53180;51.344;6.152;2022-08-18T04:19:50;19.00;90.30
33271;DHT22;53180;51.344;6.152;2022-08-18T04:22:19;19.10;90.40
33271;DHT22;53180;51.344;6.152;2022-08-18T04:24:48;19.00;90.40
33271;DHT22;53180;51.344;6.152;2022-08-18T04:27:18;19.00;90.40
33271;DHT22;53180;51.344;6.152;2022-08-18T04:29:46;19.00;90.50
33271;DHT22;53180;51.344;6.152;2022-08-18T04:32:16;19.00;90.30
33271;DHT22;53180;51.344;6.152;2022-08-18T04:34:45;19.10;90.30
33271;DHT22;53180;51.344;6.152;2022-08-18T04:37:13;19.00;90.40
33271;DHT22;53180;51.344;6.152;2022-08-18T04:39:42;19.10;90.40
33271;DHT22;53180;51.344;6.152;2022-08-18T04:42:11;19.10;90.30
33271;DHT22;53180;51.344;6.152;2022-08-18T04:44:41;19.10;90.30
33271;DHT22;53180;51.344;6.152;2022-08-18T04:47:09;19.00;90.40
33271;DHT22;53180;51.344;6.152;2022-08-18T04:49:40;19.10;90.30
33271;DHT22;53180;51.344;6.152;2022-08-18T04:52:10;19.00;90.40
33271;DHT22;53180;51.344;6.152;2022-08-18T04:55:08;19.10;90.40
33271;DHT22;53180;51.344;6.152;2022-08-18T04:57:37;19.10;90.40
33271;DHT22;53180;51.344;6.152;2022-08-18T05:00:08;19.10;90.40
33271;DHT22;53180;51.344;6.152;2022-08-18T05:02:38;19.10;90.60
33271;DHT22;53180;51.344;6.152;2022-08-18T05:05:09;19.10;90.60
33271;DHT22;53180;51.344;6.152;2022-08-18T05:07:42;19.10;90.60
33271;DHT22;53180;51.344;6.152;2022-08-18T05:10:12;19.10;90.50
33271;DHT22;53180;51.344;6.152;2022-08-18T05:12:46;19.10;90.50
33271;DHT22;53180;51.344;6.152;2022-08-18T05:15:14;19.10;90.50
33271;DHT22;53180;51.344;6.152;2022-08-18T05:17:44;19.10;90.50
33271;DHT22;53180;51.344;6.152;2022-08-18T05:20:18;19.10;90.40
33271;DHT22;53180;51.344;6.152;2022-08-18T05:22:46;19.10;90.50
33271;DHT22;53180;51.344;6.152;2022-08-18T05:25:15;19.20;90.50
33271;DHT22;53180;51.344;6.152;2022-08-18T05:27:43;19.20;90.50
33271;DHT22;53180;51.344;6.152;2022-08-18T05:30:12;19.20;90.40
33271;DHT22;53180;51.344;6.152;2022-08-18T05:32:43;19.20;90.20
33271;DHT22;53180;51.344;6.152;2022-08-18T05:35:22;19.20;90.20
33271;DHT22;53180;51.344;6.152;2022-08-18T05:38:06;19.20;90.20
33271;DHT22;53180;51.344;6.152;2022-08-18T05:40:44;19.20;90.20
33271;DHT22;53180;51.344;6.152;2022-08-18T05:43:13;19.20;90.20
33271;DHT22;53180;51.344;6.152;2022-08-18T05:45:43;19.20;90.20
33271;DHT22;53180;51.344;6.152;2022-08-18T05:48:13;19.10;90.20
33271;DHT22;53180;51.344;6.152;2022-08-18T05:50:42;19.10;90.00
33271;DHT22;53180;51.344;6.152;2022-08-18T05:53:13;19.10;90.00
33271;DHT22;53180;51.344;6.152;2022-08-18T05:55:53;19.10;89.90
33271;DHT22;53180;51.344;6.152;2022-08-18T05:58:47;19.00;89.80
33271;DHT22;53180;51.344;6.152;2022-08-18T06:01:21;19.10;89.80
33271;DHT22;53180;51.344;6.152;2022-08-18T06:03:55;19.10;89.70
33271;DHT22;53180;51.344;6.152;2022-08-18T06:06:32;19.20;89.60
33271;DHT22;53180;51.344;6.152;2022-08-18T06:09:08;19.20;89.50
33271;DHT22;53180;51.344;6.152;2022-08-18T06:11:38;19.20;89.30
33271;DHT22;53180;51.344;6.152;2022-08-18T06:14:07;19.20;89.00
33271;DHT22;53180;51.344;6.152;2022-08-18T06:16:49;19.20;88.90
33271;DHT22;53180;51.344;6.152;2022-08-18T06:19:33;19.20;88.40
33271;DHT22;53180;51.344;6.152;2022-08-18T06:22:16;19.30;88.60
33271;DHT22;53180;51.344;6.152;2022-08-18T06:24:59;19.20;88.50
33271;DHT22;53180;51.344;6.152;2022-08-18T06:27:37;19.20;88.40
33271;DHT22;53180;51.344;6.152;2022-08-18T06:30:12;19.20;88.30
33271;DHT22;53180;51.344;6.152;2022-08-18T06:33:05;19.30;88.30
33271;DHT22;53180;51.344;6.152;2022-08-18T06:35:41;19.30;88.00
33271;DHT22;53180;51.344;6.152;2022-08-18T06:38:34;19.30;88.10
33271;DHT22;53180;51.344;6.152;2022-08-18T06:41:15;19.30;87.90
33271;DHT22;53180;51.344;6.152;2022-08-18T06:44:11;19.20;87.60
33271;DHT22;53180;51.344;6.152;2022-08-18T06:46:44;19.20;87.70
33271;DHT22;53180;51.344;6.152;2022-08-18T06:49:27;19.20;87.90
33271;DHT22;53180;51.344;6.152;2022-08-18T06:52:17;19.20;87.90
33271;DHT22;53180;51.344;6.152;2022-08-18T06:54:48;19.30;88.00
33271;DHT22;53180;51.344;6.152;2022-08-18T06:57:29;19.30;88.00
33271;DHT22;53180;51.344;6.152;2022-08-18T07:00:07;19.30;87.90
33271;DHT22;53180;51.344;6.152;2022-08-18T07:02:53;19.30;87.60
33271;DHT22;53180;51.344;6.152;2022-08-18T07:05:24;19.30;87.10
33271;DHT22;53180;51.344;6.152;2022-08-18T07:08:04;19.40;87.40
33271;DHT22;53180;51.344;6.152;2022-08-18T07:10:40;19.40;87.30
33271;DHT22;53180;51.344;6.152;2022-08-18T07:13:22;19.50;87.20
33271;DHT22;53180;51.344;6.152;2022-08-18T07:15:53;19.50;87.20
33271;DHT22;53180;51.344;6.152;2022-08-18T07:18:27;19.50;87.00
33271;DHT22;53180;51.344;6.152;2022-08-18T07:20:58;19.50;87.20
33271;DHT22;53180;51.344;6.152;2022-08-18T07:23:30;19.50;87.10
33271;DHT22;53180;51.344;6.152;2022-08-18T07:26:16;19.50;87.40
33271;DHT22;53180;51.344;6.152;2022-08-18T07:28:46;19.50;87.00
33271;DHT22;53180;51.344;6.152;2022-08-18T07:31:26;19.60;86.80
33271;DHT22;53180;51.344;6.152;2022-08-18T07:34:05;19.70;86.50
33271;DHT22;53180;51.344;6.152;2022-08-18T07:36:43;19.70;86.00
33271;DHT22;53180;51.344;6.152;2022-08-18T07:39:19;19.80;86.00
33271;DHT22;53180;51.344;6.152;2022-08-18T07:41:57;19.80;85.80
33271;DHT22;53180;51.344;6.152;2022-08-18T07:44:37;19.90;84.70
33271;DHT22;53180;51.344;6.152;2022-08-18T07:47:15;20.00;84.90
33271;DHT22;53180;51.344;6.152;2022-08-18T07:49:46;20.00;84.60
33271;DHT22;53180;51.344;6.152;2022-08-18T07:52:37;20.10;84.40
33271;DHT22;53180;51.344;6.152;2022-08-18T07:55:21;20.20;84.50
33271;DHT22;53180;51.344;6.152;2022-08-18T07:58:02;20.40;85.20
33271;DHT22;53180;51.344;6.152;2022-08-18T08:00:43;20.50;84.20
33271;DHT22;53180;51.344;6.152;2022-08-18T08:03:33;20.70;83.70
33271;DHT22;53180;51.344;6.152;2022-08-18T08:06:18;20.80;83.70
33271;DHT22;53180;51.344;6.152;2022-08-18T08:08:53;20.80;83.30
33271;DHT22;53180;51.344;6.152;2022-08-18T08:11:37;20.80;82.60
33271;DHT22;53180;51.344;6.152;2022-08-18T08:14:29;20.80;82.60
33271;DHT22;53180;51.344;6.152;2022-08-18T08:17:09;20.80;82.20
33271;DHT22;53180;51.344;6.152;2022-08-18T08:20:21;20.90;82.40
33271;DHT22;53180;51.344;6.152;2022-08-18T08:23:10;20.90;81.80
33271;DHT22;53180;51.344;6.152;2022-08-18T08:25:51;20.90;81.70
33271;DHT22;53180;51.344;6.152;2022-08-18T08:28:35;20.90;81.50
33271;DHT22;53180;51.344;6.152;2022-08-18T08:31:15;20.90;81.00
33271;DHT22;53180;51.344;6.152;2022-08-18T08:34:08;20.90;79.70
33271;DHT22;53180;51.344;6.152;2022-08-18T08:36:42;20.90;80.30
33271;DHT22;53180;51.344;6.152;2022-08-18T08:39:18;20.90;79.80
33271;DHT22;53180;51.344;6.152;2022-08-18T08:42:08;20.90;80.40
33271;DHT22;53180;51.344;6.152;2022-08-18T08:45:03;20.90;79.50
33271;DHT22;53180;51.344;6.152;2022-08-18T08:47:40;21.00;79.90
33271;DHT22;53180;51.344;6.152;2022-08-18T08:50:13;21.00;80.20
33271;DHT22;53180;51.344;6.152;2022-08-18T08:52:46;21.10;79.50
33271;DHT22;53180;51.344;6.152;2022-08-18T08:55:21;21.20;79.50
33271;DHT22;53180;51.344;6.152;2022-08-18T08:57:56;21.20;79.70
33271;DHT22;53180;51.344;6.152;2022-08-18T09:00:30;21.40;80.80
33271;DHT22;53180;51.344;6.152;2022-08-18T09:03:11;21.60;79.50
33271;DHT22;53180;51.344;6.152;2022-08-18T09:06:12;21.80;79.20
33271;DHT22;53180;51.344;6.152;2022-08-18T09:09:05;22.20;77.30
33271;DHT22;53180;51.344;6.152;2022-08-18T09:12:31;22.20;76.30
33271;DHT22;53180;51.344;6.152;2022-08-18T09:15:22;22.30;77.00
33271;DHT22;53180;51.344;6.152;2022-08-18T09:21:11;22.20;75.50
33271;DHT22;53180;51.344;6.152;2022-08-18T09:23:48;22.10;76.50
33271;DHT22;53180;51.344;6.152;2022-08-18T09:26:25;22.20;76.90
33271;DHT22;53180;51.344;6.152;2022-08-18T09:29:16;22.20;76.30
33271;DHT22;53180;51.344;6.152;2022-08-18T09:35:36;22.20;76.10
33271;DHT22;53180;51.344;6.152;2022-08-18T09:38:18;22.20;75.90
33271;DHT22;53180;51.344;6.152;2022-08-18T09:41:09;22.20;76.50
33271;DHT22;53180;51.344;6.152;2022-08-18T09:44:01;22.20;76.30
33271;DHT22;53180;51.344;6.152;2022-08-18T09:46:56;22.20;76.30
33271;DHT22;53180;51.344;6.152;2022-08-18T09:49:49;22.20;76.60
33271;DHT22;53180;51.344;6.152;2022-08-18T09:52:56;22.20;76.30
33271;DHT22;53180;51.344;6.152;2022-08-18T09:55:53;22.20;76.00
33271;DHT22;53180;51.344;6.152;2022-08-18T09:58:55;22.20;76.00
33271;DHT22;53180;51.344;6.152;2022-08-18T10:01:35;22.20;76.40
33271;DHT22;53180;51.344;6.152;2022-08-18T10:04:28;22.20;76.40
33271;DHT22;53180;51.344;6.152;2022-08-18T10:07:16;22.30;76.60
33271;DHT22;53180;51.344;6.152;2022-08-18T10:09:58;22.40;76.00
33271;DHT22;53180;51.344;6.152;2022-08-18T10:13:03;22.50;76.30
33271;DHT22;53180;51.344;6.152;2022-08-18T10:15:45;22.60;76.10
33271;DHT22;53180;51.344;6.152;2022-08-18T10:18:56;22.70;74.80
33271;DHT22;53180;51.344;6.152;2022-08-18T10:21:58;22.70;75.20
33271;DHT22;53180;51.344;6.152;2022-08-18T10:24:45;22.80;75.30
33271;DHT22;53180;51.344;6.152;2022-08-18T10:27:46;22.80;74.90
33271;DHT22;53180;51.344;6.152;2022-08-18T10:30:48;22.80;74.10
33271;DHT22;53180;51.344;6.152;2022-08-18T10:34:00;22.80;74.20
33271;DHT22;53180;51.344;6.152;2022-08-18T10:36:47;22.80;74.90
33271;DHT22;53180;51.344;6.152;2022-08-18T10:39:20;22.90;74.40
33271;DHT22;53180;51.344;6.152;2022-08-18T10:42:03;23.00;75.00
33271;DHT22;53180;51.344;6.152;2022-08-18T10:44:41;23.30;74.60
33271;DHT22;53180;51.344;6.152;2022-08-18T10:47:21;23.60;73.60
33271;DHT22;53180;51.344;6.152;2022-08-18T10:50:03;23.70;72.40
33271;DHT22;53180;51.344;6.152;2022-08-18T10:52:48;23.80;72.80
33271;DHT22;53180;51.344;6.152;2022-08-18T10:55:49;23.80;72.30
33271;DHT22;53180;51.344;6.152;2022-08-18T10:58:54;23.70;72.50
33271;DHT22;53180;51.344;6.152;2022-08-18T11:01:51;23.70;73.20
33271;DHT22;53180;51.344;6.152;2022-08-18T11:04:34;23.70;72.00
33271;DHT22;53180;51.344;6.152;2022-08-18T11:07:08;23.70;71.50
33271;DHT22;53180;51.344;6.152;2022-08-18T11:09:39;23.80;72.30
33271;DHT22;53180;51.344;6.152;2022-08-18T11:12:46;24.00;71.40
33271;DHT22;53180;51.344;6.152;2022-08-18T11:15:30;24.10;70.20
33271;DHT22;53180;51.344;6.152;2022-08-18T11:18:17;24.20;70.20
33271;DHT22;53180;51.344;6.152;2022-08-18T11:24:05;24.30;70.00
33271;DHT22;53180;51.344;6.152;2022-08-18T11:26:41;24.20;68.80
33271;DHT22;53180;51.344;6.152;2022-08-18T11:29:22;24.20;69.60
33271;DHT22;53180;51.344;6.152;2022-08-18T11:31:58;24.40;69.80
33271;DHT22;53180;51.344;6.152;2022-08-18T11:34:36;24.50;68.30
33271;DHT22;53180;51.344;6.152;2022-08-18T11:37:23;24.50;67.90
33271;DHT22;53180;51.344;6.152;2022-08-18T11:40:33;24.40;68.20
33271;DHT22;53180;51.344;6.152;2022-08-18T11:43:25;24.50;68.40
33271;DHT22;53180;51.344;6.152;2022-08-18T11:45:57;24.70;68.40
33271;DHT22;53180;51.344;6.152;2022-08-18T11:48:36;25.10;66.10
33271;DHT22;53180;51.344;6.152;2022-08-18T11:51:21;25.20;66.90
33271;DHT22;53180;51.344;6.152;2022-08-18T11:53:55;25.30;65.90
33271;DHT22;53180;51.344;6.152;2022-08-18T11:56:28;25.30;64.30
33271;DHT22;53180;51.344;6.152;2022-08-18T11:59:05;25.10;65.30
33271;DHT22;53180;51.344;6.152;2022-08-18T12:01:39;25.10;64.70
33271;DHT22;53180;51.344;6.152;2022-08-18T12:04:24;25.00;65.70
33271;DHT22;53180;51.344;6.152;2022-08-18T12:07:00;25.10;65.10
33271;DHT22;53180;51.344;6.152;2022-08-18T12:09:37;25.10;63.70
33271;DHT22;53180;51.344;6.152;2022-08-18T12:12:28;24.90;63.70
33271;DHT22;53180;51.344;6.152;2022-08-18T12:15:01;24.80;64.90
33271;DHT22;53180;51.344;6.152;2022-08-18T12:17:44;24.80;65.80
33271;DHT22;53180;51.344;6.152;2022-08-18T12:20:21;24.70;66.10
33271;DHT22;53180;51.344;6.152;2022-08-18T12:22:50;24.70;66.10
33271;DHT22;53180;51.344;6.152;2022-08-18T12:25:22;24.60;66.20
33271;DHT22;53180;51.344;6.152;2022-08-18T12:27:52;24.60;66.80
33271;DHT22;53180;51.344;6.152;2022-08-18T12:30:20;24.60;66.90
33271;DHT22;53180;51.344;6.152;2022-08-18T12:32:49;24.60;66.40
33271;DHT22;53180;51.344;6.152;2022-08-18T12:35:32;24.70;66.70
33271;DHT22;53180;51.344;6.152;2022-08-18T12:38:01;24.80;67.40
33271;DHT22;53180;51.344;6.152;2022-08-18T12:40:40;24.90;66.50
33271;DHT22;53180;51.344;6.152;2022-08-18T12:43:10;24.80;64.80
33271;DHT22;53180;51.344;6.152;2022-08-18T12:45:39;24.80;65.10
33271;DHT22;53180;51.344;6.152;2022-08-18T12:48:08;24.80;64.20
33271;DHT22;53180;51.344;6.152;2022-08-18T12:50:39;24.90;64.50
33271;DHT22;53180;51.344;6.152;2022-08-18T12:53:24;24.80;66.00
33271;DHT22;53180;51.344;6.152;2022-08-18T12:56:05;24.80;64.00
33271;DHT22;53180;51.344;6.152;2022-08-18T12:58:37;24.70;64.80
33271;DHT22;53180;51.344;6.152;2022-08-18T13:01:06;24.60;64.30
33271;DHT22;53180;51.344;6.152;2022-08-18T13:03:36;24.50;64.40
33271;DHT22;53180;51.344;6.152;2022-08-18T13:06:09;24.50;63.90
33271;DHT22;53180;51.344;6.152;2022-08-18T13:08:42;24.50;65.00
33271;DHT22;53180;51.344;6.152;2022-08-18T13:11:16;24.50;66.00
33271;DHT22;53180;51.344;6.152;2022-08-18T13:13:52;24.50;65.10
33271;DHT22;53180;51.344;6.152;2022-08-18T13:16:23;24.40;64.80
33271;DHT22;53180;51.344;6.152;2022-08-18T13:19:13;24.30;64.90
33271;DHT22;53180;51.344;6.152;2022-08-18T13:21:43;24.30;66.50
33271;DHT22;53180;51.344;6.152;2022-08-18T13:24:11;24.40;65.20
33271;DHT22;53180;51.344;6.152;2022-08-18T13:26:43;24.40;65.60
33271;DHT22;53180;51.344;6.152;2022-08-18T13:29:15;24.50;66.30
33271;DHT22;53180;51.344;6.152;2022-08-18T13:31:44;24.60;66.10
33271;DHT22;53180;51.344;6.152;2022-08-18T13:34:24;24.80;66.40
33271;DHT22;53180;51.344;6.152;2022-08-18T13:36:57;25.10;64.40
33271;DHT22;53180;51.344;6.152;2022-08-18T13:39:25;25.20;63.90
33271;DHT22;53180;51.344;6.152;2022-08-18T13:42:00;25.30;64.00
33271;DHT22;53180;51.344;6.152;2022-08-18T13:44:49;25.30;62.80
33271;DHT22;53180;51.344;6.152;2022-08-18T13:47:19;25.30;64.20
33271;DHT22;53180;51.344;6.152;2022-08-18T13:49:48;25.40;63.90
33271;DHT22;53180;51.344;6.152;2022-08-18T13:52:26;25.40;62.00
33271;DHT22;53180;51.344;6.152;2022-08-18T13:55:12;25.40;63.00
33271;DHT22;53180;51.344;6.152;2022-08-18T13:57:43;25.50;62.50
33271;DHT22;53180;51.344;6.152;2022-08-18T14:00:18;25.60;63.70
33271;DHT22;53180;51.344;6.152;2022-08-18T14:02:56;25.50;62.20
33271;DHT22;53180;51.344;6.152;2022-08-18T14:05:30;25.40;62.00
33271;DHT22;53180;51.344;6.152;2022-08-18T14:08:18;25.40;61.50
33271;DHT22;53180;51.344;6.152;2022-08-18T14:10:49;25.40;61.30
33271;DHT22;53180;51.344;6.152;2022-08-18T14:13:20;25.40;62.00
33271;DHT22;53180;51.344;6.152;2022-08-18T14:15:51;25.50;62.10
33271;DHT22;53180;51.344;6.152;2022-08-18T14:18:21;25.60;62.30
33271;DHT22;53180;51.344;6.152;2022-08-18T14:20:57;25.70;61.90
33271;DHT22;53180;51.344;6.152;2022-08-18T14:23:50;25.80;62.30
33271;DHT22;53180;51.344;6.152;2022-08-18T14:26:40;25.90;60.60
33271;DHT22;53180;51.344;6.152;2022-08-18T14:29:16;25.80;61.50
33271;DHT22;53180;51.344;6.152;2022-08-18T14:32:05;25.80;61.40
33271;DHT22;53180;51.344;6.152;2022-08-18T14:34:37;25.90;60.30
33271;DHT22;53180;51.344;6.152;2022-08-18T14:37:16;25.90;59.20
33271;DHT22;53180;51.344;6.152;2022-08-18T14:39:48;25.90;59.00
33271;DHT22;53180;51.344;6.152;2022-08-18T14:42:20;25.90;60.10
33271;DHT22;53180;51.344;6.152;2022-08-18T14:45:09;26.00;60.00
33271;DHT22;53180;51.344;6.152;2022-08-18T14:48:00;25.90;59.10
33271;DHT22;53180;51.344;6.152;2022-08-18T14:50:36;25.90;60.70
33271;DHT22;53180;51.344;6.152;2022-08-18T14:53:10;25.80;59.00
33271;DHT22;53180;51.344;6.152;2022-08-18T14:55:42;25.70;58.90
33271;DHT22;53180;51.344;6.152;2022-08-18T14:58:15;25.70;59.70
33271;DHT22;53180;51.344;6.152;2022-08-18T15:00:44;25.70;59.60
33271;DHT22;53180;51.344;6.152;2022-08-18T15:03:20;25.70;60.80
33271;DHT22;53180;51.344;6.152;2022-08-18T15:05:58;25.70;59.70
33271;DHT22;53180;51.344;6.152;2022-08-18T15:08:31;25.70;60.80
33271;DHT22;53180;51.344;6.152;2022-08-18T15:11:04;25.70;61.50
33271;DHT22;53180;51.344;6.152;2022-08-18T15:13:39;25.80;59.50
33271;DHT22;53180;51.344;6.152;2022-08-18T15:16:11;25.90;60.80
33271;DHT22;53180;51.344;6.152;2022-08-18T15:18:40;25.90;60.70
33271;DHT22;53180;51.344;6.152;2022-08-18T15:21:09;25.90;60.80
33271;DHT22;53180;51.344;6.152;2022-08-18T15:24:05;26.00;59.80
33271;DHT22;53180;51.344;6.152;2022-08-18T15:26:54;26.00;59.10
33271;DHT22;53180;51.344;6.152;2022-08-18T15:29:32;26.00;57.80
33271;DHT22;53180;51.344;6.152;2022-08-18T15:32:01;25.90;58.80
33271;DHT22;53180;51.344;6.152;2022-08-18T15:34:35;25.90;58.90
33271;DHT22;53180;51.344;6.152;2022-08-18T15:37:13;25.90;58.70
33271;DHT22;53180;51.344;6.152;2022-08-18T15:39:46;25.90;58.30
33271;DHT22;53180;51.344;6.152;2022-08-18T15:42:23;25.90;58.50
33271;DHT22;53180;51.344;6.152;2022-08-18T15:44:53;25.90;58.00
33271;DHT22;53180;51.344;6.152;2022-08-18T15:47:22;25.90;58.60
33271;DHT22;53180;51.344;6.152;2022-08-18T15:49:51;25.80;58.60
33271;DHT22;53180;51.344;6.152;2022-08-18T15:52:21;25.80;58.70
33271;DHT22;53180;51.344;6.152;2022-08-18T15:54:51;25.80;59.20
33271;DHT22;53180;51.344;6.152;2022-08-18T15:57:29;25.80;58.70
33271;DHT22;53180;51.344;6.152;2022-08-18T16:00:07;25.70;58.40
33271;DHT22;53180;51.344;6.152;2022-08-18T16:02:38;25.70;59.00
33271;DHT22;53180;51.344;6.152;2022-08-18T16:05:14;25.70;58.70
33271;DHT22;53180;51.344;6.152;2022-08-18T16:07:43;25.60;58.50
33271;DHT22;53180;51.344;6.152;2022-08-18T16:10:14;25.70;57.20
33271;DHT22;53180;51.344;6.152;2022-08-18T16:12:46;25.70;57.30
33271;DHT22;53180;51.344;6.152;2022-08-18T16:15:14;25.70;57.90
33271;DHT22;53180;51.344;6.152;2022-08-18T16:17:47;25.50;58.30
33271;DHT22;53180;51.344;6.152;2022-08-18T16:20:18;25.50;58.30
33271;DHT22;53180;51.344;6.152;2022-08-18T16:22:47;25.50;58.80
33271;DHT22;53180;51.344;6.152;2022-08-18T16:25:15;25.40;59.80
33271;DHT22;53180;51.344;6.152;2022-08-18T16:27:45;25.40;59.70
33271;DHT22;53180;51.344;6.152;2022-08-18T16:30:17;25.40;59.80
33271;DHT22;53180;51.344;6.152;2022-08-18T16:32:46;25.40;59.50
33271;DHT22;53180;51.344;6.152;2022-08-18T16:35:16;25.40;59.60
33271;DHT22;53180;51.344;6.152;2022-08-18T16:37:45;25.30;59.50
33271;DHT22;53180;51.344;6.152;2022-08-18T16:40:16;25.40;59.00